createdAt,value
2019-05-23T00:03:25.571Z,11.50
2019-05-23T00:09:14.686Z,11.59
2019-05-23T00:21:22.809Z,11.64
2019-05-23T00:27:16.406Z,11.78
2019-05-23T00:39:27.284Z,10.71
2019-05-23T00:42:17.032Z,11.05
2019-05-23T00:45:00.334Z,10.87
2019-05-23T00:47:51.908Z,10.67
2019-05-23T00:50:35.919Z,10.63
2019-05-23T00:56:20.081Z,10.43
2019-05-23T01:05:18.926Z,10.92
2019-05-23T01:07:50.606Z,10.97
2019-05-23T01:10:40.426Z,11.03
2019-05-23T01:13:24.343Z,11.23
2019-05-23T01:16:14.733Z,11.15
2019-05-23T01:18:57.407Z,10.85
2019-05-23T01:22:05.983Z,10.82
2019-05-23T01:24:51.102Z,10.56
2019-05-23T01:27:40.938Z,10.44
2019-05-23T01:30:28.258Z,10.53
2019-05-23T01:36:21.505Z,10.83
2019-05-23T01:42:09.493Z,10.80
2019-05-23T01:51:09.131Z,10.53
2019-05-23T01:56:54.141Z,10.71
2019-05-23T01:59:44.200Z,10.60
2019-05-23T02:05:31.036Z,10.72
2019-05-23T02:08:39.931Z,10.67
2019-05-23T02:11:23.000Z,10.78
2019-05-23T02:14:13.060Z,10.74
2019-05-23T02:16:56.119Z,10.65
2019-05-23T02:22:49.189Z,10.65
2019-05-23T02:28:44.229Z,10.60
2019-05-23T02:31:34.545Z,10.88
2019-05-23T02:34:17.122Z,10.74
2019-05-23T02:43:09.121Z,10.53
2019-05-23T02:49:01.205Z,10.50
2019-05-23T02:54:45.773Z,10.65
2019-05-23T03:00:54.735Z,10.77
2019-05-23T03:06:39.675Z,10.62
2019-05-23T03:12:46.386Z,10.28
2019-05-23T03:18:34.989Z,10.37
2019-05-23T03:21:19.586Z,10.27
2019-05-23T03:24:09.783Z,10.25
2019-05-23T03:27:18.870Z,10.20
2019-05-23T03:30:26.512Z,10.16
2019-05-23T03:33:09.700Z,10.18
2019-05-23T03:39:06.094Z,10.10
2019-05-23T03:45:00.641Z,9.96
2019-05-23T03:50:55.402Z,9.86
2019-05-23T03:53:45.509Z,9.95
2019-05-23T03:59:31.945Z,9.96
2019-05-23T04:08:24.608Z,10.00
2019-05-23T04:14:11.111Z,10.28
2019-05-23T04:17:20.479Z,10.15
2019-05-23T04:20:03.510Z,10.31
2019-05-23T04:22:53.250Z,10.39
2019-05-23T04:25:35.805Z,10.17
2019-05-23T04:28:25.718Z,10.43
2019-05-23T04:31:15.570Z,10.81
2019-05-23T04:37:02.493Z,11.35
2019-05-23T04:39:52.302Z,11.60
2019-05-23T04:42:35.050Z,12.63
2019-05-23T04:48:19.861Z,12.93
2019-05-23T04:54:14.663Z,12.30
2019-05-23T04:56:56.633Z,12.74
2019-05-23T04:59:46.538Z,13.56
2019-05-23T05:02:29.257Z,13.98
2019-05-23T05:08:12.869Z,12.67
2019-05-23T05:14:03.434Z,13.95
2019-05-23T05:16:53.254Z,14.75
2019-05-23T05:19:37.381Z,15.18
2019-05-23T05:22:27.462Z,16.29
2019-05-23T05:28:11.275Z,16.63
2019-05-23T05:31:01.057Z,17.11
2019-05-23T05:33:50.819Z,17.00
2019-05-23T05:36:40.740Z,16.79
2019-05-23T05:39:30.581Z,16.49
2019-05-23T05:42:20.656Z,16.03
2019-05-23T05:45:03.179Z,16.57
2019-05-23T05:50:49.358Z,15.65
2019-05-23T05:53:39.703Z,15.90
2019-05-23T05:56:21.818Z,15.42
2019-05-23T05:59:11.597Z,14.72
2019-05-23T06:01:55.221Z,14.22
2019-05-23T06:04:44.963Z,13.96
2019-05-23T06:10:36.716Z,13.38
2019-05-23T06:13:19.594Z,12.88
2019-05-23T06:16:28.892Z,12.68
2019-05-23T06:22:16.040Z,13.15
2019-05-23T06:28:22.304Z,13.02
2019-05-23T06:34:08.866Z,12.92
2019-05-23T06:39:54.042Z,13.31
2019-05-23T06:42:44.118Z,13.27
2019-05-23T06:45:28.511Z,13.48
2019-05-23T06:48:18.559Z,13.26
2019-05-23T06:51:22.613Z,12.98
2019-05-23T06:54:05.074Z,13.28
2019-05-23T06:56:54.800Z,13.28
2019-05-23T06:59:36.786Z,13.37
2019-05-23T07:05:44.303Z,13.91
2019-05-23T07:11:29.829Z,14.31
2019-05-23T07:14:19.704Z,14.63
2019-05-23T07:20:06.178Z,14.25
2019-05-23T07:22:56.201Z,14.72
2019-05-23T07:25:39.120Z,14.73
2019-05-23T07:28:29.195Z,14.54
2019-05-23T07:31:12.155Z,14.84
2019-05-23T07:36:57.558Z,15.00
2019-05-23T07:46:02.794Z,15.52
2019-05-23T07:48:47.031Z,15.37
2019-05-23T07:51:30.243Z,14.97
2019-05-23T07:54:38.785Z,15.15
2019-05-23T07:57:21.046Z,15.30
2019-05-23T08:03:35.175Z,15.26
2019-05-23T08:06:24.896Z,15.63
2019-05-23T08:09:08.340Z,15.78
2019-05-23T08:14:53.211Z,16.00
2019-05-23T08:17:43.317Z,16.52
2019-05-23T08:29:51.402Z,16.44
2019-05-23T08:32:41.212Z,16.15
2019-05-23T08:35:23.329Z,16.53
2019-05-23T08:38:13.453Z,16.32
2019-05-23T08:40:57.155Z,16.27
2019-05-23T08:46:47.907Z,16.89
2019-05-23T08:52:34.101Z,16.23
2019-05-23T08:58:38.179Z,16.42
2019-05-23T09:01:28.103Z,16.43
2019-05-23T09:07:14.633Z,16.95
2019-05-23T09:10:05.010Z,17.02
2019-05-23T09:12:47.713Z,17.32
2019-05-23T09:15:56.822Z,17.20
2019-05-23T09:18:39.203Z,16.92
2019-05-23T09:21:28.947Z,16.88
2019-05-23T09:24:11.602Z,16.86
2019-05-23T09:27:01.542Z,17.28
2019-05-23T09:32:56.872Z,17.83
2019-05-23T09:35:46.850Z,17.49
2019-05-23T09:38:36.698Z,17.75
2019-05-23T09:41:26.543Z,17.80
2019-05-23T09:47:10.804Z,18.12
2019-05-23T09:55:50.238Z,18.05
2019-05-23T09:58:33.334Z,17.73
2019-05-23T10:04:17.253Z,17.80
2019-05-23T10:16:13.652Z,18.65
2019-05-23T10:19:03.359Z,18.57
2019-05-23T10:21:45.324Z,18.64
2019-05-23T10:24:35.278Z,18.29
2019-05-23T10:27:18.998Z,18.42
2019-05-23T10:33:12.110Z,19.43
2019-05-23T10:36:00.320Z,19.23
2019-05-23T10:38:43.881Z,18.98
2019-05-23T10:41:33.627Z,18.68
2019-05-23T10:44:16.111Z,18.42
2019-05-23T10:47:22.794Z,18.74
2019-05-23T10:50:08.798Z,18.76
2019-05-23T10:52:58.791Z,18.96
2019-05-23T10:55:41.483Z,19.15
2019-05-23T11:01:35.275Z,18.78
2019-05-23T11:04:25.558Z,18.80
2019-05-23T11:07:10.723Z,18.93
2019-05-23T11:10:00.447Z,18.91
2019-05-23T11:12:42.893Z,18.40
2019-05-23T11:18:36.852Z,19.32
2019-05-23T11:21:26.885Z,19.90
2019-05-23T11:24:09.315Z,20.28
2019-05-23T11:26:59.055Z,19.90
2019-05-23T11:29:45.577Z,19.25
2019-05-23T11:32:35.498Z,19.62
2019-05-23T11:38:23.579Z,21.02
2019-05-23T11:41:06.740Z,20.25
2019-05-23T11:43:57.047Z,20.80
2019-05-23T11:46:47.037Z,20.22
2019-05-23T11:49:49.057Z,19.80
2019-05-23T11:52:31.571Z,19.50
2019-05-23T11:58:26.199Z,19.64
2019-05-23T12:01:55.385Z,19.61
2019-05-23T12:04:30.478Z,20.18
2019-05-23T12:07:39.973Z,20.40
2019-05-23T12:13:06.682Z,20.69
2019-05-23T12:15:57.141Z,20.73
2019-05-23T12:18:47.411Z,20.93
2019-05-23T12:21:37.753Z,20.33
2019-05-23T12:24:20.704Z,20.58
2019-05-23T12:27:11.117Z,20.50
2019-05-23T12:29:53.969Z,20.86
2019-05-23T12:32:44.229Z,21.41
2019-05-23T12:35:27.337Z,21.44
2019-05-23T12:38:17.808Z,21.82
2019-05-23T12:41:01.727Z,22.11
2019-05-23T12:43:52.057Z,21.05
2019-05-23T12:46:35.423Z,20.81
2019-05-23T12:52:32.932Z,21.52
2019-05-23T12:55:23.238Z,20.88
2019-05-23T12:58:06.206Z,21.00
2019-05-23T13:04:01.062Z,20.64
2019-05-23T13:06:51.757Z,20.58
2019-05-23T13:09:35.461Z,20.98
2019-05-23T13:12:25.946Z,21.20
2019-05-23T13:15:09.087Z,21.71
2019-05-23T13:17:59.393Z,21.66
2019-05-23T13:20:42.153Z,21.54
2019-05-23T13:23:32.406Z,21.91
2019-05-23T13:26:17.682Z,21.31
2019-05-23T13:29:07.956Z,20.71
2019-05-23T13:34:55.351Z,20.69
2019-05-23T13:40:41.415Z,21.38
2019-05-23T13:46:26.262Z,20.47
2019-05-23T13:49:16.896Z,20.46
2019-05-23T13:52:07.335Z,20.91
2019-05-23T13:54:57.673Z,21.07
2019-05-23T13:57:48.004Z,21.41
2019-05-23T14:03:44.642Z,21.24
2019-05-23T14:09:16.536Z,21.68
2019-05-23T14:15:04.428Z,20.83
2019-05-23T14:17:48.077Z,20.80
2019-05-23T14:20:57.636Z,20.52
2019-05-23T14:23:48.158Z,20.66
2019-05-23T14:29:35.299Z,20.66
2019-05-23T14:32:44.487Z,20.82
2019-05-23T14:38:34.143Z,21.90
2019-05-23T14:44:28.121Z,21.12
2019-05-23T14:47:37.424Z,20.85
2019-05-23T14:50:39.959Z,20.94
2019-05-23T14:53:25.639Z,21.06
2019-05-23T14:59:13.260Z,21.02
2019-05-23T15:05:07.184Z,20.85
2019-05-23T15:07:38.416Z,21.25
2019-05-23T15:10:11.207Z,21.29
2019-05-23T15:12:42.463Z,21.05
2019-05-23T15:15:15.372Z,20.73
2019-05-23T15:17:46.585Z,20.52
2019-05-23T15:20:17.987Z,20.57
2019-05-23T15:22:49.205Z,20.98
2019-05-23T15:25:21.424Z,21.01
2019-05-23T15:27:53.203Z,21.02
2019-05-23T15:30:24.501Z,21.26
2019-05-23T15:32:55.757Z,21.44
2019-05-23T15:35:28.138Z,21.58
2019-05-23T15:37:59.451Z,21.20
2019-05-23T15:40:31.756Z,21.09
2019-05-23T15:43:02.995Z,21.11
2019-05-23T15:45:34.241Z,21.05
2019-05-23T15:48:05.505Z,20.78
2019-05-23T15:50:42.268Z,20.69
2019-05-23T15:53:20.431Z,20.70
2019-05-23T15:55:59.085Z,20.83
2019-05-23T15:58:39.004Z,20.81
2019-05-23T16:01:16.437Z,21.02
2019-05-23T16:03:50.623Z,21.27
2019-05-23T16:06:23.926Z,21.03
2019-05-23T16:08:55.283Z,20.77
2019-05-23T16:11:26.562Z,20.69
2019-05-23T16:13:58.025Z,20.68
2019-05-23T16:16:29.418Z,20.67
2019-05-23T16:19:00.664Z,20.68
2019-05-23T16:21:32.943Z,20.69
2019-05-23T16:24:05.436Z,20.46
2019-05-23T16:26:36.795Z,20.52
2019-05-23T16:29:09.721Z,20.58
2019-05-23T16:31:41.102Z,20.71
2019-05-23T16:34:12.634Z,20.59
2019-05-23T16:36:43.846Z,20.48
2019-05-23T16:39:15.101Z,20.58
2019-05-23T16:41:46.816Z,20.65
2019-05-23T16:44:18.107Z,20.56
2019-05-23T16:46:49.510Z,20.43
2019-05-23T16:49:21.110Z,20.36
2019-05-23T16:51:52.654Z,20.29
2019-05-23T16:54:28.453Z,20.36
2019-05-23T16:57:15.455Z,20.44
2019-05-23T17:00:08.612Z,20.30
2019-05-23T17:02:50.308Z,20.25
2019-05-23T17:05:41.226Z,20.37
2019-05-23T17:08:33.856Z,20.31
2019-05-23T17:11:17.572Z,20.18
2019-05-23T17:13:52.689Z,20.16
2019-05-23T17:16:33.170Z,20.22
2019-05-23T17:19:12.920Z,20.17
2019-05-23T17:21:51.007Z,20.13
2019-05-23T17:24:40.278Z,20.17
2019-05-23T17:27:29.140Z,20.17
2019-05-23T17:30:21.400Z,20.11
2019-05-23T17:32:53.007Z,20.07
2019-05-23T17:35:24.333Z,20.17
2019-05-23T17:37:54.951Z,20.22
2019-05-23T17:40:26.270Z,20.18
2019-05-23T17:42:57.679Z,20.06
2019-05-23T17:45:29.343Z,20.06
2019-05-23T17:48:00.682Z,20.06
2019-05-23T17:50:34.671Z,20.09
2019-05-23T17:53:05.297Z,20.00
2019-05-23T17:55:36.082Z,19.97
2019-05-23T17:58:06.822Z,19.87
2019-05-23T18:00:40.352Z,19.84
2019-05-23T18:03:11.606Z,19.77
2019-05-23T18:05:43.033Z,19.71
2019-05-23T18:08:15.155Z,19.62
2019-05-23T18:10:46.393Z,19.64
2019-05-23T18:13:18.080Z,19.60
2019-05-23T18:15:48.768Z,19.60
2019-05-23T18:18:19.564Z,19.59
2019-05-23T18:20:50.431Z,19.55
2019-05-23T18:23:21.989Z,19.53
2019-05-23T18:25:52.642Z,19.51
2019-05-23T18:28:24.137Z,19.38
2019-05-23T18:30:58.920Z,19.44
2019-05-23T18:33:29.918Z,19.15
2019-05-23T18:36:01.043Z,19.13
2019-05-23T18:38:32.147Z,19.03
2019-05-23T18:41:08.716Z,18.98
2019-05-23T18:43:37.074Z,18.91
2019-05-23T18:46:12.138Z,18.85
2019-05-23T18:48:43.003Z,18.70
2019-05-23T18:51:13.733Z,18.47
2019-05-23T18:53:44.576Z,18.34
2019-05-23T18:56:16.185Z,18.17
2019-05-23T18:58:47.016Z,18.01
2019-05-23T19:01:20.146Z,17.91
2019-05-23T19:03:51.749Z,17.92
2019-05-23T19:06:22.856Z,17.79
2019-05-23T19:08:53.619Z,17.73
2019-05-23T19:11:24.880Z,17.67
2019-05-23T19:13:56.094Z,17.53
2019-05-23T19:16:28.489Z,17.45
2019-05-23T19:19:00.371Z,17.43
2019-05-23T19:21:33.202Z,17.51
2019-05-23T19:24:04.829Z,17.35
2019-05-23T19:26:36.689Z,17.25
2019-05-23T19:29:08.294Z,17.19
2019-05-23T19:31:39.425Z,17.09
2019-05-23T19:34:10.681Z,17.00
2019-05-23T19:36:41.703Z,16.97
2019-05-23T19:39:13.176Z,16.83
2019-05-23T19:41:43.880Z,16.67
2019-05-23T19:44:14.662Z,16.59
2019-05-23T19:46:45.530Z,16.48
2019-05-23T19:49:17.722Z,16.34
2019-05-23T19:51:48.491Z,16.22
2019-05-23T19:54:21.002Z,16.10
2019-05-23T19:56:52.398Z,16.15
2019-05-23T19:59:23.150Z,16.02
2019-05-23T20:02:21.946Z,15.86
2019-05-23T20:04:59.209Z,15.82
2019-05-23T20:07:30.086Z,15.70
2019-05-23T20:10:01.534Z,15.66
2019-05-23T20:12:32.282Z,15.85
2019-05-23T20:15:02.985Z,15.82
2019-05-23T20:17:33.730Z,15.63
2019-05-23T20:20:04.427Z,15.33
2019-05-23T20:22:35.236Z,15.13
2019-05-23T20:25:07.968Z,15.09
2019-05-23T20:27:38.646Z,15.00
2019-05-23T20:30:11.660Z,15.02
2019-05-23T20:32:42.545Z,14.98
2019-05-23T20:35:13.361Z,14.99
2019-05-23T20:37:44.325Z,14.97
2019-05-23T20:40:15.663Z,14.99
2019-05-23T20:42:46.281Z,14.92
2019-05-23T20:45:16.934Z,14.80
2019-05-23T20:47:47.561Z,14.79
2019-05-23T20:50:18.375Z,15.17
2019-05-23T20:52:49.024Z,14.87
2019-05-23T20:55:19.683Z,14.75
2019-05-23T20:57:50.318Z,14.69
2019-05-23T21:00:27.694Z,14.69
2019-05-23T21:02:58.628Z,14.59
2019-05-23T21:05:29.573Z,14.82
2019-05-23T21:08:00.217Z,14.80
2019-05-23T21:10:48.902Z,14.58
2019-05-23T21:13:21.215Z,14.59
2019-05-23T21:15:52.780Z,14.52
2019-05-23T21:18:23.387Z,14.51
2019-05-23T21:20:54.181Z,14.47
2019-05-23T21:23:24.813Z,14.44
2019-05-23T21:26:02.337Z,14.33
2019-05-23T21:28:32.979Z,14.30
2019-05-23T21:31:05.179Z,14.32
2019-05-23T21:33:35.881Z,14.09
2019-05-23T21:36:06.848Z,13.96
2019-05-23T21:38:37.746Z,13.92
2019-05-23T21:41:08.419Z,13.89
2019-05-23T21:43:41.192Z,13.91
2019-05-23T21:46:12.007Z,13.83
2019-05-23T21:48:42.663Z,13.82
2019-05-23T21:51:13.581Z,13.72
2019-05-23T21:53:44.528Z,13.69
2019-05-23T21:56:15.192Z,13.71
2019-05-23T21:58:46.095Z,13.64
2019-05-23T22:01:38.323Z,13.56
2019-05-23T22:04:46.139Z,13.61
2019-05-23T22:07:16.967Z,13.68
2019-05-23T22:09:47.595Z,13.61
2019-05-23T22:12:18.368Z,13.59
2019-05-23T22:14:49.281Z,13.52
2019-05-23T22:17:21.645Z,13.63
2019-05-23T22:19:52.889Z,13.55
2019-05-23T22:22:24.212Z,13.53
2019-05-23T22:24:54.855Z,13.23
2019-05-23T22:27:25.816Z,13.31
2019-05-23T22:29:56.812Z,13.22
2019-05-23T22:32:28.711Z,13.06
2019-05-23T22:35:04.533Z,12.93
2019-05-23T22:37:35.148Z,12.95
2019-05-23T22:40:06.756Z,12.93
2019-05-23T22:42:37.585Z,12.94
2019-05-23T22:45:12.882Z,12.90
2019-05-23T22:47:43.704Z,12.84
2019-05-23T22:50:14.552Z,12.79
2019-05-23T22:52:45.275Z,12.85
2019-05-23T22:55:15.914Z,12.64
2019-05-23T22:57:46.625Z,12.58
2019-05-23T23:00:21.024Z,12.57
2019-05-23T23:02:51.649Z,12.72
2019-05-23T23:05:22.286Z,12.70
2019-05-23T23:07:52.930Z,12.66
2019-05-23T23:10:23.559Z,12.61
2019-05-23T23:12:54.208Z,12.60
2019-05-23T23:15:26.270Z,12.62
2019-05-23T23:17:56.893Z,12.62
2019-05-23T23:20:27.530Z,12.56
2019-05-23T23:22:58.155Z,12.56
2019-05-23T23:25:29.254Z,12.49
2019-05-23T23:27:59.919Z,12.41
2019-05-23T23:30:33.942Z,12.39
2019-05-23T23:33:04.628Z,12.36
2019-05-23T23:35:35.586Z,12.27
2019-05-23T23:38:06.554Z,12.22
2019-05-23T23:40:37.338Z,12.18
2019-05-23T23:43:08.008Z,12.16
2019-05-23T23:45:56.172Z,12.16
2019-05-23T23:48:44.153Z,12.10
2019-05-23T23:51:32.178Z,11.99
2019-05-23T23:54:20.420Z,12.03
2019-05-23T23:57:08.605Z,12.06
2019-05-23T23:59:38.221Z,11.97
